createdAt,value
2023-04-05T00:00:12.627Z,97559.53
2023-04-05T00:04:14.831Z,97556.47
2023-04-05T00:08:24.142Z,97549.13
2023-04-05T00:12:24.712Z,97550.25
2023-04-05T00:16:27.922Z,97540.38
2023-04-05T00:20:29.508Z,97541.97
2023-04-05T00:24:31.356Z,97537.13
2023-04-05T00:28:32.021Z,97538.84
2023-04-05T00:32:35.652Z,97535.66
2023-04-05T00:36:36.031Z,97539.97
2023-04-05T00:40:36.654Z,97530.53
2023-04-05T00:44:37.832Z,97534.47
2023-04-05T00:48:42.542Z,97526.66
2023-04-05T00:52:43.751Z,97535.09
2023-04-05T00:56:45.905Z,97515.81
2023-04-05T01:00:59.661Z,97521.75
2023-04-05T01:05:12.043Z,97512.91
2023-04-05T01:09:32.542Z,97513.00
2023-04-05T01:13:33.616Z,97508.50
2023-04-05T01:17:37.152Z,97506.53
2023-04-05T01:22:14.419Z,97491.88
2023-04-05T01:27:02.473Z,97494.00
2023-04-05T01:31:11.700Z,97496.78
2023-04-05T01:35:24.817Z,97486.81
2023-04-05T01:39:27.390Z,97477.91
2023-04-05T01:43:29.046Z,97487.69
2023-04-05T01:47:32.402Z,97487.69
2023-04-05T01:51:33.454Z,97478.72
2023-04-05T01:55:34.156Z,97483.81
2023-04-05T01:59:36.604Z,97473.34
2023-04-05T02:03:39.774Z,97478.91
2023-04-05T02:07:40.290Z,97475.28
2023-04-05T02:11:40.898Z,97475.84
2023-04-05T02:15:41.238Z,97476.03
2023-04-05T02:19:47.169Z,97473.72
2023-04-05T02:23:47.500Z,97473.41
2023-04-05T02:27:48.585Z,97469.00
2023-04-05T02:31:49.374Z,97475.06
2023-04-05T02:35:56.644Z,97465.25
2023-04-05T02:39:57.166Z,97453.47
2023-04-05T02:43:58.012Z,97469.84
2023-04-05T02:47:58.553Z,97455.16
2023-04-05T02:52:03.177Z,97459.25
2023-04-05T02:56:03.933Z,97439.13
2023-04-05T03:00:09.146Z,97459.56
2023-04-05T03:04:09.678Z,97456.44
2023-04-05T03:08:19.016Z,97456.59
2023-04-05T03:12:30.632Z,97453.16
2023-04-05T03:16:31.509Z,97446.63
2023-04-05T03:20:40.401Z,97443.06
2023-04-05T03:24:51.061Z,97439.16
2023-04-05T03:28:53.015Z,97436.38
2023-04-05T03:33:01.464Z,97440.28
2023-04-05T03:37:18.062Z,97440.78
2023-04-05T03:41:26.410Z,97445.03
2023-04-05T03:45:27.385Z,97444.06
2023-04-05T03:49:27.828Z,97444.06
2023-04-05T03:53:29.760Z,97438.50
2023-04-05T03:57:35.960Z,97443.06
2023-04-05T04:01:46.527Z,97454.19
2023-04-05T04:05:48.573Z,97451.88
2023-04-05T04:09:49.224Z,97450.59
2023-04-05T04:13:53.305Z,97450.91
2023-04-05T04:17:59.510Z,97436.81
2023-04-05T04:22:20.996Z,97448.22
2023-04-05T04:26:41.198Z,97443.38
2023-04-05T04:31:05.264Z,97435.50
2023-04-05T04:35:28.172Z,97444.69
2023-04-05T04:39:36.157Z,97444.00
2023-04-05T04:44:05.731Z,97447.63
2023-04-05T04:48:19.052Z,97444.69
2023-04-05T04:52:29.342Z,97447.31
2023-04-05T04:56:30.080Z,97435.50
2023-04-05T05:00:32.278Z,97450.56
2023-04-05T05:04:37.941Z,97444.81
2023-04-05T05:08:38.510Z,97450.56
2023-04-05T05:12:39.006Z,97457.13
2023-04-05T05:16:39.538Z,97423.97
2023-04-05T05:20:43.456Z,97461.38
2023-04-05T05:24:44.443Z,97467.28
2023-04-05T05:28:46.316Z,97468.91
2023-04-05T05:32:46.803Z,97464.16
2023-04-05T05:36:50.053Z,97473.78
2023-04-05T05:40:50.670Z,97464.94
2023-04-05T05:44:51.112Z,97463.00
2023-04-05T05:48:51.682Z,97463.00
2023-04-05T05:52:54.944Z,97471.50
2023-04-05T05:56:59.546Z,97477.72
2023-04-05T06:01:00.055Z,97476.75
2023-04-05T06:05:02.348Z,97469.53
2023-04-05T06:09:06.416Z,97470.09
2023-04-05T06:13:06.811Z,97466.22
2023-04-05T06:17:07.115Z,97477.50
2023-04-05T06:21:07.594Z,97472.09
2023-04-05T06:25:13.270Z,97475.88
2023-04-05T06:29:13.660Z,97472.97
2023-04-05T06:33:13.969Z,97469.13
2023-04-05T06:37:14.536Z,97469.09
2023-04-05T06:41:17.690Z,97474.53
2023-04-05T06:45:21.025Z,97467.66
2023-04-05T06:49:21.497Z,97459.66
2023-04-05T06:53:21.867Z,97465.69
2023-04-05T06:57:24.935Z,97462.00
2023-04-05T07:01:26.492Z,97464.88
2023-04-05T07:05:27.105Z,97451.91
2023-04-05T07:09:29.466Z,97456.41
2023-04-05T07:13:32.851Z,97457.59
2023-04-05T07:17:33.432Z,97455.19
2023-04-05T07:21:33.946Z,97450.28
2023-04-05T07:25:35.420Z,97452.06
2023-04-05T07:29:41.013Z,97451.81
2023-04-05T07:33:41.642Z,97448.81
2023-04-05T07:37:42.082Z,97449.34
2023-04-05T07:41:43.272Z,97452.88
2023-04-05T07:45:46.563Z,97449.13
2023-04-05T07:49:47.065Z,97454.66
2023-04-05T07:53:47.544Z,97449.81
2023-04-05T07:57:48.095Z,97451.00
2023-04-05T08:01:51.575Z,97450.88
2023-04-05T08:05:54.741Z,97440.88
2023-04-05T08:09:57.791Z,97434.19
2023-04-05T08:13:58.300Z,97446.13
2023-04-05T08:18:01.473Z,97441.00
2023-04-05T08:22:01.866Z,97430.25
2023-04-05T08:26:03.850Z,97434.66
2023-04-05T08:30:04.454Z,97426.78
2023-04-05T08:34:11.101Z,97425.78
2023-04-05T08:38:12.441Z,97419.44
2023-04-05T08:42:20.016Z,97417.41
2023-04-05T08:46:23.744Z,97420.88
2023-04-05T08:50:28.215Z,97419.88
2023-04-05T08:54:31.573Z,97419.28
2023-04-05T08:58:34.468Z,97419.09
2023-04-05T09:02:36.546Z,97374.66
2023-04-05T09:06:40.409Z,97409.31
2023-04-05T09:10:41.178Z,97394.75
2023-04-05T09:14:46.463Z,97395.53
2023-04-05T09:18:49.509Z,97395.16
2023-04-05T09:22:52.619Z,97388.50
2023-04-05T09:27:08.526Z,97400.44
2023-04-05T09:31:10.651Z,97393.81
2023-04-05T09:35:22.857Z,97382.09
2023-04-05T09:39:33.165Z,97397.72
2023-04-05T09:43:43.109Z,97385.88
2023-04-05T09:51:50.016Z,97384.06
2023-04-05T09:55:53.704Z,97391.78
2023-04-05T09:59:57.687Z,97383.00
2023-04-05T10:04:02.959Z,97394.28
2023-04-05T10:08:07.215Z,97380.13
2023-04-05T10:12:12.077Z,97391.78
2023-04-05T10:16:24.206Z,97377.66
2023-04-05T10:20:27.012Z,97381.31
2023-04-05T10:24:47.238Z,97376.00
2023-04-05T10:28:55.490Z,97373.88
2023-04-05T10:33:19.975Z,97381.13
2023-04-05T10:37:39.663Z,97361.44
2023-04-05T10:41:46.284Z,97368.53
2023-04-05T10:45:55.010Z,97361.25
2023-04-05T10:50:03.237Z,97365.19
2023-04-05T10:54:05.344Z,97360.25
2023-04-05T10:58:07.543Z,97359.38
2023-04-05T11:02:12.572Z,97357.50
2023-04-05T11:06:35.707Z,97362.94
2023-04-05T11:10:39.943Z,97351.06
2023-04-05T11:14:43.674Z,97351.13
2023-04-05T11:18:52.283Z,97343.03
2023-04-05T11:22:58.066Z,97337.44
2023-04-05T11:27:01.930Z,97336.34
2023-04-05T11:31:19.616Z,97328.31
2023-04-05T11:35:26.061Z,97327.03
2023-04-05T11:39:31.179Z,97327.50
2023-04-05T11:43:34.785Z,97330.56
2023-04-05T11:47:41.331Z,97327.75
2023-04-05T11:51:49.230Z,97333.19
2023-04-05T11:55:55.546Z,97327.31
2023-04-05T11:59:56.954Z,97324.16
2023-04-05T12:03:59.174Z,97315.03
2023-04-05T12:08:03.308Z,97333.16
2023-04-05T12:12:03.780Z,97320.34
2023-04-05T12:16:06.434Z,97314.53
2023-04-05T12:20:08.599Z,97304.69
2023-04-05T12:24:13.427Z,97288.03
2023-04-05T12:28:13.913Z,97290.94
2023-04-05T12:32:14.797Z,97288.44
2023-04-05T12:36:18.693Z,97278.00
2023-04-05T12:40:25.585Z,97278.56
2023-04-05T12:44:34.844Z,97277.53
2023-04-05T12:48:35.347Z,97284.09
2023-04-05T12:52:37.473Z,97280.91
2023-04-05T12:56:42.313Z,97274.66
2023-04-05T13:00:42.710Z,97268.59
2023-04-05T13:04:43.523Z,97264.47
2023-04-05T13:08:43.881Z,97250.72
2023-04-05T13:12:47.331Z,97246.03
2023-04-05T13:16:47.655Z,97244.03
2023-04-05T13:20:49.529Z,97253.56
2023-04-05T13:24:52.118Z,97246.44
2023-04-05T13:28:55.174Z,97243.47
2023-04-05T13:32:55.772Z,97230.59
2023-04-05T13:36:56.404Z,97234.50
2023-04-05T13:40:56.872Z,97240.09
2023-04-05T13:45:00.107Z,97226.56
2023-04-05T13:49:02.240Z,97221.81
2023-04-05T13:53:02.658Z,97223.09
2023-04-05T13:57:03.704Z,97212.31
2023-04-05T14:01:06.937Z,97218.16
2023-04-05T14:05:08.342Z,97190.63
2023-04-05T14:09:08.787Z,97201.97
2023-04-05T14:13:13.471Z,97190.31
2023-04-05T14:17:16.923Z,97194.53
2023-04-05T14:21:17.380Z,97191.78
2023-04-05T14:25:18.242Z,97183.38
2023-04-05T14:29:19.088Z,97177.28
2023-04-05T14:33:22.291Z,97184.06
2023-04-05T14:37:22.757Z,97179.19
2023-04-05T14:41:27.262Z,97181.22
2023-04-05T14:45:28.902Z,97178.28
2023-04-05T14:49:32.792Z,97174.28
2023-04-05T14:53:34.224Z,97168.47
2023-04-05T14:57:34.668Z,97186.34
2023-04-05T15:01:35.451Z,97189.75
2023-04-05T15:05:39.082Z,97187.81
2023-04-05T15:09:39.713Z,97191.25
2023-04-05T15:13:40.468Z,97187.97
2023-04-05T15:17:41.511Z,97189.50
2023-04-05T15:21:44.746Z,97184.53
2023-04-05T15:25:46.359Z,97168.13
2023-04-05T15:29:48.932Z,97174.81
2023-04-05T15:33:53.081Z,97176.69
2023-04-05T15:37:57.065Z,97168.25
2023-04-05T15:42:01.848Z,97167.13
2023-04-05T15:46:02.260Z,97170.00
2023-04-05T15:50:02.895Z,97167.84
2023-04-05T15:54:07.032Z,97171.38
2023-04-05T15:58:07.795Z,97175.13
2023-04-05T16:02:10.727Z,97176.50
2023-04-05T16:06:11.776Z,97172.97
2023-04-05T16:10:15.546Z,97161.78
2023-04-05T16:14:18.070Z,97174.19
2023-04-05T16:18:20.480Z,97165.00
2023-04-05T16:22:21.265Z,97168.94
2023-04-05T16:26:25.159Z,97170.00
2023-04-05T16:30:26.242Z,97168.38
2023-04-05T16:34:26.959Z,97168.72
2023-04-05T16:38:27.897Z,97170.94
2023-04-05T16:42:33.607Z,97168.13
2023-04-05T16:46:34.333Z,97172.88
2023-04-05T16:50:36.267Z,97165.56
2023-04-05T16:54:37.166Z,97156.44
2023-04-05T16:58:41.334Z,97167.38
2023-04-05T17:02:41.780Z,97166.38
2023-04-05T17:06:43.311Z,97158.72
2023-04-05T17:10:43.716Z,97169.47
2023-04-05T17:14:49.656Z,97173.97
2023-04-05T17:18:50.168Z,97170.69
2023-04-05T17:22:51.810Z,97155.63
2023-04-05T17:26:52.350Z,97183.22
2023-04-05T17:30:57.193Z,97173.81
2023-04-05T17:34:58.024Z,97188.44
2023-04-05T17:38:59.855Z,97181.00
2023-04-05T17:43:01.047Z,97188.94
2023-04-05T17:47:09.050Z,97184.41
2023-04-05T17:51:15.791Z,97182.44
2023-04-05T17:55:17.133Z,97188.53
2023-04-05T17:59:18.987Z,97195.03
2023-04-05T18:03:25.327Z,97185.47
2023-04-05T18:07:29.665Z,97202.41
2023-04-05T18:11:30.126Z,97205.50
2023-04-05T18:15:30.876Z,97204.84
2023-04-05T18:19:35.312Z,97208.28
2023-04-05T18:23:37.149Z,97214.25
2023-04-05T18:27:37.765Z,97189.28
2023-04-05T18:31:38.694Z,97227.13
2023-04-05T18:35:44.136Z,97229.97
2023-04-05T18:39:46.373Z,97237.19
2023-04-05T18:43:48.319Z,97238.63
2023-04-05T18:47:49.232Z,97241.66
2023-04-05T18:51:53.294Z,97249.84
2023-04-05T18:55:55.839Z,97248.31
2023-04-05T18:59:56.224Z,97234.97
2023-04-05T19:03:57.548Z,97242.75
2023-04-05T19:08:01.046Z,97239.13
2023-04-05T19:12:01.606Z,97254.75
2023-04-05T19:16:02.559Z,97259.97
2023-04-05T19:20:04.399Z,97256.13
2023-04-05T19:24:10.001Z,97261.25
2023-04-05T19:28:11.980Z,97247.63
2023-04-05T19:32:13.123Z,97254.16
2023-04-05T19:36:13.785Z,97240.00
2023-04-05T19:40:17.120Z,97259.06
2023-04-05T19:44:41.365Z,97258.66
2023-04-05T19:48:43.565Z,97260.25
2023-04-05T19:52:51.046Z,97229.22
2023-04-05T19:56:55.010Z,97259.63
2023-04-05T20:00:56.512Z,97265.72
2023-04-05T20:04:59.276Z,97262.06
2023-04-05T20:09:07.931Z,97255.78
2023-04-05T20:13:12.387Z,97257.00
2023-04-05T20:17:16.689Z,97246.63
2023-04-05T20:21:19.764Z,97256.56
2023-04-05T20:25:40.755Z,97256.97
2023-04-05T20:29:43.930Z,97253.25
2023-04-05T20:34:00.253Z,97264.44
2023-04-05T20:38:01.790Z,97260.97
2023-04-05T20:42:03.985Z,97262.41
2023-04-05T20:46:09.610Z,97266.72
2023-04-05T20:50:13.215Z,97270.41
2023-04-05T20:54:14.353Z,97268.25
2023-04-05T20:58:17.140Z,97271.81
2023-04-05T21:02:22.776Z,97262.03
2023-04-05T21:06:23.343Z,97271.06
2023-04-05T21:10:25.020Z,97270.88
2023-04-05T21:14:25.374Z,97277.72
2023-04-05T21:18:30.938Z,97272.00
2023-04-05T21:22:32.573Z,97276.47
2023-04-05T21:26:33.129Z,97278.81
2023-04-05T21:30:33.561Z,97281.94
2023-04-05T21:34:38.597Z,97284.81
2023-04-05T21:38:38.969Z,97285.88
2023-04-05T21:42:39.696Z,97274.25
2023-04-05T21:46:40.212Z,97280.00
2023-04-05T21:50:43.621Z,97278.34
2023-04-05T21:54:44.142Z,97276.22
2023-04-05T21:58:45.003Z,97266.34
2023-04-05T22:02:47.027Z,97269.81
2023-04-05T22:06:50.260Z,97266.63
2023-04-05T22:10:50.597Z,97261.81
2023-04-05T22:14:51.144Z,97257.66
2023-04-05T22:18:51.455Z,97261.53
2023-04-05T22:22:54.328Z,97257.91
2023-04-05T22:26:56.891Z,97270.38
2023-04-05T22:30:57.877Z,97278.81
2023-04-05T22:34:58.653Z,97270.78
2023-04-05T22:39:02.182Z,97244.56
2023-04-05T22:43:02.608Z,97268.53
2023-04-05T22:47:03.539Z,97268.53
2023-04-05T22:51:04.430Z,97274.31
2023-04-05T22:55:09.167Z,97263.38
2023-04-05T22:59:09.781Z,97257.75
2023-04-05T23:03:10.445Z,97265.44
2023-04-05T23:07:10.911Z,97271.97
2023-04-05T23:11:13.859Z,97267.66
2023-04-05T23:15:15.360Z,97270.72
2023-04-05T23:19:16.769Z,97276.59
2023-04-05T23:23:17.364Z,97267.28
2023-04-05T23:27:21.426Z,97265.56
2023-04-05T23:31:22.047Z,97256.63
2023-04-05T23:35:22.739Z,97268.72
2023-04-05T23:39:23.182Z,97262.69
2023-04-05T23:43:26.369Z,97252.41
2023-04-05T23:47:26.797Z,97253.38
2023-04-05T23:51:27.343Z,97254.28
2023-04-05T23:55:27.677Z,97257.44
2023-04-05T23:59:31.089Z,97253.03
